Time;durP1;ratioP1;P1;durP2;ratioP2;P2;SDS_P1;SDS_P2;PMS_P1;PMS_P2;Temp;Humidity;BMP_temperature;BMP_pressure;BME280_temperature;BME280_humidity;BME280_pressure;Samples;Min_cycle;Max_cycle;Signal;HPM_P1;HPM_P2
2022/09/07 00:00:34;;;;;;;8.60;7.30;;;18.10;99.90;;;;;;5049651;28;20049;-78
2022/09/07 00:02:59;;;;;;;9.52;7.25;;;17.90;99.90;;;;;;5075466;28;20040;-78
2022/09/07 00:05:27;;;;;;;9.05;6.40;;;17.90;99.90;;;;;;5068081;28;20063;-78
2022/09/07 00:07:52;;;;;;;10.18;7.75;;;18.00;99.90;;;;;;5065661;28;20045;-77
2022/09/07 00:10:18;;;;;;;11.73;7.03;;;18.00;99.90;;;;;;5044700;28;20055;-77
2022/09/07 00:12:44;;;;;;;12.55;8.82;;;17.90;99.90;;;;;;5074748;28;20402;-77
2022/09/07 00:15:11;;;;;;;12.93;8.18;;;17.90;99.90;;;;;;5070733;28;20037;-78
2022/09/07 00:17:38;;;;;;;8.85;6.82;;;17.80;99.90;;;;;;5063541;28;20290;-78
2022/09/07 00:20:05;;;;;;;10.52;7.55;;;17.80;99.90;;;;;;5063111;28;20040;-78
2022/09/07 00:22:31;;;;;;;8.68;7.78;;;17.80;99.90;;;;;;5073309;28;20440;-77
2022/09/07 00:24:56;;;;;;;9.00;7.35;;;17.80;99.90;;;;;;5071601;28;20040;-77
2022/09/07 00:27:22;;;;;;;8.35;7.50;;;17.80;99.90;;;;;;5064230;28;20402;-78
2022/09/07 00:29:48;;;;;;;8.40;7.60;;;17.80;99.90;;;;;;5064722;28;20462;-78
2022/09/07 00:32:13;;;;;;;11.57;8.65;;;17.80;99.90;;;;;;5054054;28;20060;-77
2022/09/07 00:34:39;;;;;;;9.23;7.78;;;17.70;99.90;;;;;;5071894;28;20045;-77
2022/09/07 00:37:05;;;;;;;9.85;6.57;;;17.70;99.90;;;;;;5062880;28;20043;-77
2022/09/07 00:39:30;;;;;;;9.98;7.65;;;17.70;99.90;;;;;;5053208;28;20045;-77
2022/09/07 00:41:56;;;;;;;8.38;7.35;;;17.70;99.90;;;;;;5052989;28;20510;-77
2022/09/07 00:44:58;;;;;;;11.27;8.10;;;17.70;99.90;;;;;;5056375;28;20424;-77
2022/09/07 00:47:30;;;;;;;8.40;7.32;;;17.70;99.90;;;;;;5061353;28;20049;-77
2022/09/07 00:50:01;;;;;;;11.05;6.25;;;17.70;99.90;;;;;;5052765;28;20495;-77
2022/09/07 00:52:30;;;;;;;9.52;7.80;;;17.70;99.90;;;;;;5053177;28;20044;-77
2022/09/07 00:54:59;;;;;;;10.80;7.90;;;17.60;99.90;;;;;;5060572;28;20044;-78
2022/09/07 00:57:27;;;;;;;7.32;6.63;;;17.70;99.90;;;;;;5063482;28;20060;-78
2022/09/07 00:59:54;;;;;;;10.15;7.97;;;17.60;99.90;;;;;;5073392;28;20036;-77
2022/09/07 01:02:21;;;;;;;10.80;7.80;;;17.50;99.90;;;;;;5076519;28;20107;-77
2022/09/07 01:04:50;;;;;;;11.50;8.00;;;17.50;99.90;;;;;;5067773;28;20157;-79
2022/09/07 01:07:16;;;;;;;10.05;7.68;;;17.50;99.90;;;;;;5067020;28;20051;-78
2022/09/07 01:09:45;;;;;;;11.88;8.73;;;17.50;99.90;;;;;;5055834;28;20040;-77
2022/09/07 01:12:11;;;;;;;10.43;9.32;;;17.60;99.90;;;;;;5054797;28;20376;-77
2022/09/07 01:14:42;;;;;;;12.32;9.73;;;17.60;99.90;;;;;;5071482;28;20444;-77
2022/09/07 01:17:33;;;;;;;11.25;9.02;;;17.50;99.90;;;;;;5061865;28;20045;-77
2022/09/07 01:20:34;;;;;;;11.73;9.52;;;17.50;99.90;;;;;;5052162;28;20099;-77
2022/09/07 01:23:21;;;;;;;15.23;10.30;;;17.50;99.90;;;;;;5060613;28;20551;-75
2022/09/07 01:26:24;;;;;;;12.20;10.90;;;17.40;99.90;;;;;;5064238;28;20071;-76
2022/09/07 01:29:02;;;;;;;12.38;10.18;;;17.40;99.90;;;;;;5065050;28;20041;-74
2022/09/07 01:32:10;;;;;;;15.45;11.20;;;17.30;99.90;;;;;;5073750;28;20075;-75
2022/09/07 01:34:37;;;;;;;16.85;11.82;;;17.30;99.90;;;;;;5020116;28;20087;-75
2022/09/07 01:37:25;;;;;;;17.27;13.07;;;17.30;99.90;;;;;;5063576;28;20048;-75
2022/09/07 01:40:11;;;;;;;15.15;11.95;;;17.20;99.90;;;;;;5055540;28;20055;-76
2022/09/07 01:42:59;;;;;;;12.68;11.38;;;17.20;99.90;;;;;;5051978;28;20041;-75
2022/09/07 01:45:27;;;;;;;13.68;12.30;;;17.10;99.90;;;;;;5056254;28;20379;-76
2022/09/07 01:47:57;;;;;;;16.45;12.93;;;17.10;99.90;;;;;;5059275;28;20491;-75
2022/09/07 01:50:35;;;;;;;15.98;13.38;;;17.00;99.90;;;;;;5070992;28;20136;-77
2022/09/07 01:53:28;;;;;;;16.58;14.75;;;17.00;99.90;;;;;;5069800;28;20041;-75
2022/09/07 01:56:01;;;;;;;16.00;12.35;;;16.90;99.90;;;;;;5059217;28;20040;-74
2022/09/07 01:58:33;;;;;;;15.85;14.15;;;16.90;99.90;;;;;;5058832;28;20106;-76
2022/09/07 02:01:24;;;;;;;17.10;13.95;;;16.90;99.90;;;;;;5059086;28;20098;-75
2022/09/07 02:03:57;;;;;;;18.15;16.25;;;16.90;99.90;;;;;;5057201;28;20057;-78
2022/09/07 02:06:57;;;;;;;17.35;15.52;;;16.90;99.90;;;;;;5062071;28;20040;-75
2022/09/07 02:09:48;;;;;;;17.23;15.43;;;16.80;99.90;;;;;;5064420;28;20048;-75
2022/09/07 02:12:21;;;;;;;18.20;15.77;;;16.70;99.90;;;;;;5071357;28;20048;-75
2022/09/07 02:14:53;;;;;;;19.23;15.63;;;16.70;99.90;;;;;;5069461;28;20036;-76
2022/09/07 02:17:30;;;;;;;18.90;16.70;;;16.60;99.90;;;;;;5059431;28;20040;-76
2022/09/07 02:20:03;;;;;;;19.48;17.40;;;16.60;99.90;;;;;;5051107;28;20047;-75
2022/09/07 02:22:33;;;;;;;20.60;17.90;;;16.60;99.90;;;;;;5051199;28;20041;-75
2022/09/07 02:25:02;;;;;;;19.35;16.63;;;16.60;99.90;;;;;;5055544;28;20040;-75
2022/09/07 02:27:46;;;;;;;21.00;17.58;;;16.60;99.90;;;;;;5062297;28;20040;-74
2022/09/07 02:30:12;;;;;;;20.25;17.38;;;16.60;99.90;;;;;;5070778;28;20048;-74
2022/09/07 02:32:38;;;;;;;20.00;17.33;;;16.60;99.90;;;;;;5063588;28;20091;-75
2022/09/07 02:35:04;;;;;;;21.13;18.88;;;16.60;99.90;;;;;;5062905;28;20044;-75
2022/09/07 02:37:31;;;;;;;19.20;16.10;;;16.60;99.90;;;;;;5061486;28;20032;-75
2022/09/07 02:39:57;;;;;;;20.17;18.00;;;16.60;99.90;;;;;;5070507;28;20090;-75
2022/09/07 02:42:22;;;;;;;18.73;16.83;;;16.60;99.90;;;;;;5069823;28;20123;-76
2022/09/07 02:44:48;;;;;;;19.63;17.58;;;16.60;99.90;;;;;;5061818;28;20040;-75
2022/09/07 02:47:22;;;;;;;18.70;16.80;;;16.60;99.90;;;;;;5069814;28;20575;-75
2022/09/07 02:50:20;;;;;;;22.15;18.10;;;16.60;99.90;;;;;;5070645;28;20041;-76
2022/09/07 02:53:15;;;;;;;18.52;15.65;;;16.60;99.90;;;;;;5069570;28;20068;-76
2022/09/07 02:55:59;;;;;;;24.70;20.02;;;16.70;99.90;;;;;;5058915;28;20061;-75
2022/09/07 02:58:55;;;;;;;18.17;16.25;;;16.70;99.90;;;;;;5068807;28;20113;-76
2022/09/07 03:01:30;;;;;;;22.30;19.95;;;16.70;99.90;;;;;;5070463;28;20055;-75
2022/09/07 03:04:10;;;;;;;17.88;15.85;;;16.70;99.90;;;;;;5060912;28;20072;-75
2022/09/07 03:06:47;;;;;;;18.25;15.80;;;16.80;99.90;;;;;;5056076;28;20053;-75
2022/09/07 03:09:19;;;;;;;18.33;15.95;;;16.80;99.90;;;;;;5069556;28;20067;-75
2022/09/07 03:11:46;;;;;;;18.48;16.50;;;16.80;99.90;;;;;;5070319;28;20037;-75
2022/09/07 03:14:20;;;;;;;19.70;17.60;;;16.90;99.90;;;;;;5060893;28;20119;-76
2022/09/07 03:16:52;;;;;;;16.75;15.05;;;16.90;99.90;;;;;;5054444;28;20043;-76
2022/09/07 03:19:18;;;;;;;17.52;15.45;;;16.90;99.90;;;;;;5067172;28;20044;-76
2022/09/07 03:21:44;;;;;;;19.27;16.75;;;16.90;99.90;;;;;;5067214;28;20405;-76
2022/09/07 03:24:09;;;;;;;17.83;15.88;;;16.80;99.90;;;;;;5057549;28;20052;-76
2022/09/07 03:26:42;;;;;;;19.70;16.85;;;16.90;99.90;;;;;;5055662;28;20043;-76
2022/09/07 03:29:08;;;;;;;22.55;20.38;;;16.90;99.90;;;;;;5044708;28;20040;-76
2022/09/07 03:31:34;;;;;;;22.85;20.65;;;16.90;99.90;;;;;;5070334;28;20227;-76
2022/09/07 03:34:00;;;;;;;22.05;19.92;;;16.80;99.90;;;;;;5068173;28;20051;-76
2022/09/07 03:36:25;;;;;;;19.27;17.40;;;16.80;99.90;;;;;;5062035;28;20549;-76
2022/09/07 03:38:51;;;;;;;24.17;20.35;;;16.70;99.90;;;;;;5069444;28;20029;-76
2022/09/07 03:41:16;;;;;;;23.88;21.33;;;16.70;99.90;;;;;;5069850;28;20394;-76
2022/09/07 03:43:42;;;;;;;21.45;19.20;;;16.70;99.90;;;;;;5062002;28;20106;-75
2022/09/07 03:46:09;;;;;;;20.38;17.30;;;16.70;99.90;;;;;;5041245;28;20041;-75
2022/09/07 03:48:36;;;;;;;23.90;19.98;;;16.70;99.90;;;;;;5049766;28;20395;-76
2022/09/07 03:51:04;;;;;;;26.95;21.15;;;16.70;99.90;;;;;;5070191;28;20052;-75
2022/09/07 03:53:35;;;;;;;25.83;23.13;;;16.60;99.90;;;;;;5063744;28;20053;-75
2022/09/07 03:56:06;;;;;;;23.80;21.25;;;16.60;99.90;;;;;;5057973;28;20036;-75
2022/09/07 03:58:33;;;;;;;26.88;23.88;;;16.60;99.90;;;;;;5050128;28;20368;-75
2022/09/07 04:01:03;;;;;;;29.58;24.98;;;16.60;99.90;;;;;;5063375;28;20037;-75
2022/09/07 04:03:28;;;;;;;25.95;23.25;;;16.60;99.90;;;;;;5064296;28;20394;-75
2022/09/07 04:05:56;;;;;;;27.60;24.77;;;16.50;99.90;;;;;;5057872;28;20120;-75
2022/09/07 04:08:25;;;;;;;26.08;23.25;;;16.50;99.90;;;;;;5049604;28;20049;-75
2022/09/07 04:10:50;;;;;;;27.60;23.98;;;16.50;99.90;;;;;;5059398;28;20090;-75
2022/09/07 04:13:16;;;;;;;27.80;23.08;;;16.40;99.90;;;;;;5065897;28;20044;-75
2022/09/07 04:15:41;;;;;;;28.48;24.13;;;16.50;99.90;;;;;;5057587;28;20088;-75
2022/09/07 04:18:07;;;;;;;24.90;22.15;;;16.40;99.90;;;;;;5049600;28;20125;-75
2022/09/07 04:20:32;;;;;;;28.55;24.48;;;16.40;99.90;;;;;;5052373;28;20413;-75
2022/09/07 04:22:58;;;;;;;27.50;22.13;;;16.40;99.90;;;;;;5067665;28;20047;-75
2022/09/07 04:25:23;;;;;;;29.23;24.38;;;16.40;99.90;;;;;;5057557;28;20052;-75
2022/09/07 04:27:49;;;;;;;31.95;25.20;;;16.40;99.90;;;;;;5049680;28;20095;-75
2022/09/07 04:30:15;;;;;;;28.35;25.27;;;16.30;99.90;;;;;;5049629;28;20375;-75
2022/09/07 04:32:40;;;;;;;28.48;25.42;;;16.30;99.90;;;;;;5064948;28;20069;-75
2022/09/07 04:35:06;;;;;;;29.38;25.75;;;16.30;99.90;;;;;;5044152;28;20044;-75
2022/09/07 04:37:32;;;;;;;29.92;25.90;;;16.20;99.90;;;;;;5069590;28;20048;-75
2022/09/07 04:39:57;;;;;;;32.53;28.70;;;16.20;99.90;;;;;;5069498;28;20076;-75
2022/09/07 04:42:22;;;;;;;35.72;26.33;;;16.20;99.90;;;;;;5063377;28;20543;-75
2022/09/07 04:44:49;;;;;;;31.63;28.02;;;16.10;99.90;;;;;;5057408;28;20124;-75
2022/09/07 04:47:15;;;;;;;34.30;28.92;;;16.10;99.90;;;;;;5053675;28;20383;-75
2022/09/07 04:49:40;;;;;;;32.33;28.42;;;16.10;99.90;;;;;;5063887;28;20036;-75
2022/09/07 04:52:06;;;;;;;31.83;25.83;;;16.00;99.90;;;;;;5054303;28;20048;-75
2022/09/07 04:54:31;;;;;;;31.95;27.45;;;16.00;99.90;;;;;;5060821;28;20066;-74
2022/09/07 04:56:57;;;;;;;30.70;25.10;;;16.00;99.90;;;;;;5052707;28;20048;-75
2022/09/07 04:59:22;;;;;;;32.63;27.52;;;15.90;99.90;;;;;;5062912;28;20037;-75
2022/09/07 05:01:48;;;;;;;34.15;27.58;;;15.90;99.90;;;;;;5066821;28;20046;-75
2022/09/07 05:04:13;;;;;;;34.50;28.98;;;16.00;99.90;;;;;;5061890;28;20052;-75
2022/09/07 05:06:39;;;;;;;31.25;27.35;;;15.90;99.90;;;;;;5063699;28;20047;-74
2022/09/07 05:09:04;;;;;;;30.08;26.88;;;15.90;99.90;;;;;;5066234;28;20036;-74
2022/09/07 05:11:30;;;;;;;28.83;25.20;;;15.90;99.90;;;;;;5063639;28;20447;-76
2022/09/07 05:13:57;;;;;;;29.67;25.08;;;15.90;99.90;;;;;;5063482;28;20567;-75
2022/09/07 05:16:25;;;;;;;26.15;23.40;;;15.90;99.90;;;;;;5052592;28;20372;-74
2022/09/07 05:18:53;;;;;;;30.70;25.80;;;15.90;99.90;;;;;;5052341;28;20395;-74
2022/09/07 05:21:21;;;;;;;29.00;25.90;;;15.90;99.90;;;;;;5060141;28;20047;-74
2022/09/07 05:23:52;;;;;;;30.58;26.35;;;16.00;99.90;;;;;;5082178;28;20048;-74
2022/09/07 05:26:20;;;;;;;28.77;24.38;;;16.00;99.90;;;;;;5081083;28;20048;-75
2022/09/07 05:28:46;;;;;;;31.15;24.63;;;16.00;99.90;;;;;;5073431;28;20040;-75
2022/09/07 05:31:15;;;;;;;30.23;24.27;;;16.10;99.90;;;;;;5071954;28;20044;-74
2022/09/07 05:33:48;;;;;;;27.13;22.98;;;16.10;99.90;;;;;;5070802;28;20071;-75
2022/09/07 05:36:14;;;;;;;28.73;23.25;;;16.20;99.90;;;;;;5055686;28;20043;-74
2022/09/07 05:38:39;;;;;;;25.13;22.52;;;16.30;99.90;;;;;;5071924;28;20395;-75
2022/09/07 05:41:20;;;;;;;25.38;22.70;;;16.30;99.90;;;;;;5071667;28;20502;-75
2022/09/07 05:43:46;;;;;;;30.95;27.58;;;16.40;99.90;;;;;;5071001;28;20094;-74
2022/09/07 05:46:13;;;;;;;29.35;21.25;;;16.40;99.90;;;;;;5071804;28;20482;-74
2022/09/07 05:48:39;;;;;;;25.05;22.10;;;16.40;99.90;;;;;;5071745;28;20143;-75
2022/09/07 05:51:05;;;;;;;27.02;23.20;;;16.40;99.90;;;;;;5071902;28;20066;-75
2022/09/07 05:53:36;;;;;;;27.27;21.60;;;16.40;99.90;;;;;;5071904;28;20044;-76
2022/09/07 05:56:03;;;;;;;25.65;21.83;;;16.40;99.90;;;;;;5072572;28;20044;-75
2022/09/07 05:58:29;;;;;;;25.25;21.83;;;16.40;99.90;;;;;;5071042;28;20045;-75
2022/09/07 06:00:58;;;;;;;25.50;22.75;;;16.50;99.90;;;;;;5071583;28;20044;-75
2022/09/07 06:03:24;;;;;;;30.65;22.38;;;16.50;99.90;;;;;;5071555;28;20040;-75
2022/09/07 06:06:08;;;;;;;25.85;21.48;;;16.50;99.90;;;;;;5071564;28;20048;-75
2022/09/07 06:08:36;;;;;;;28.48;21.85;;;16.50;99.90;;;;;;5069729;28;20044;-75
2022/09/07 06:11:07;;;;;;;26.23;21.77;;;16.60;99.90;;;;;;5071206;28;20048;-75
2022/09/07 06:13:33;;;;;;;27.60;23.77;;;16.70;99.90;;;;;;5071475;28;20099;-75
2022/09/07 06:16:00;;;;;;;27.23;23.02;;;16.70;99.90;;;;;;5071292;28;20032;-75
2022/09/07 06:18:32;;;;;;;26.92;22.88;;;16.80;99.90;;;;;;5072403;28;20037;-75
2022/09/07 06:21:06;;;;;;;32.72;22.90;;;16.80;99.90;;;;;;5071506;28;20426;-75
2022/09/07 06:23:32;;;;;;;32.20;22.80;;;16.90;99.90;;;;;;5071494;28;20445;-75
2022/09/07 06:25:58;;;;;;;31.85;21.55;;;16.90;99.90;;;;;;5071190;28;20098;-75
2022/09/07 06:28:32;;;;;;;26.10;22.95;;;17.00;99.90;;;;;;5070990;28;20044;-75
2022/09/07 06:31:07;;;;;;;29.55;20.33;;;17.10;99.90;;;;;;5070765;28;20076;-76
2022/09/07 06:33:33;;;;;;;29.63;22.40;;;17.20;99.90;;;;;;5070460;28;20083;-75
2022/09/07 06:36:02;;;;;;;24.75;20.90;;;17.20;99.90;;;;;;5070766;28;20036;-76
2022/09/07 06:38:36;;;;;;;22.77;20.42;;;17.30;99.90;;;;;;5054539;28;20055;-73
2022/09/07 06:41:12;;;;;;;28.48;21.35;;;17.40;99.90;;;;;;5070630;28;20092;-74
2022/09/07 06:43:39;;;;;;;26.60;20.33;;;17.50;99.90;;;;;;5070746;28;20044;-74
2022/09/07 06:46:05;;;;;;;28.42;20.98;;;17.60;99.90;;;;;;5070370;28;20444;-75
2022/09/07 06:48:31;;;;;;;24.58;18.80;;;17.70;99.90;;;;;;5070479;28;20127;-75
2022/09/07 06:50:58;;;;;;;31.50;20.80;;;17.80;99.90;;;;;;5070279;28;20051;-75
2022/09/07 06:53:30;;;;;;;31.85;23.23;;;18.00;99.90;;;;;;5070475;28;20041;-75
2022/09/07 06:55:56;;;;;;;24.67;20.42;;;18.10;99.90;;;;;;5069816;28;20479;-74
2022/09/07 06:58:25;;;;;;;22.75;18.20;;;18.30;99.90;;;;;;5070391;28;20097;-75
2022/09/07 07:00:52;;;;;;;25.45;19.60;;;18.40;99.90;;;;;;5053501;28;20043;-75
2022/09/07 07:03:17;;;;;;;22.45;19.20;;;18.50;99.90;;;;;;5070354;28;20033;-76
2022/09/07 07:05:54;;;;;;;28.33;20.38;;;18.60;99.90;;;;;;5070529;28;20040;-73
2022/09/07 07:08:21;;;;;;;22.27;18.30;;;18.70;99.90;;;;;;5069518;28;20029;-73
2022/09/07 07:10:47;;;;;;;23.95;19.17;;;18.70;99.90;;;;;;5069286;28;20086;-74
2022/09/07 07:13:13;;;;;;;24.85;18.60;;;18.70;99.90;;;;;;5070133;28;20551;-74
2022/09/07 07:15:39;;;;;;;21.35;18.65;;;18.60;99.90;;;;;;5070049;28;20040;-74
2022/09/07 07:18:04;;;;;;;22.50;20.15;;;18.60;99.90;;;;;;5071564;28;20660;-74
2022/09/07 07:20:30;;;;;;;22.60;19.05;;;18.50;99.90;;;;;;5069956;28;20037;-74
2022/09/07 07:22:56;;;;;;;22.35;20.00;;;18.40;99.90;;;;;;5071252;28;20469;-74
2022/09/07 07:25:22;;;;;;;20.63;18.60;;;18.40;99.90;;;;;;5069940;28;20043;-74
2022/09/07 07:27:47;;;;;;;20.08;17.17;;;18.30;99.90;;;;;;5071440;28;20037;-74
2022/09/07 07:30:15;;;;;;;23.15;18.23;;;18.30;99.90;;;;;;5069816;28;20431;-73
2022/09/07 07:32:42;;;;;;;24.67;19.15;;;18.20;99.90;;;;;;5069996;28;20048;-74
2022/09/07 07:35:08;;;;;;;20.02;17.38;;;18.20;99.90;;;;;;5069157;28;20052;-74
2022/09/07 07:37:35;;;;;;;24.80;18.00;;;18.20;99.90;;;;;;5070106;28;20400;-74
2022/09/07 07:40:03;;;;;;;21.25;16.58;;;18.20;99.90;;;;;;5069807;28;20040;-74
2022/09/07 07:42:28;;;;;;;20.35;17.08;;;18.20;99.90;;;;;;5069879;28;20040;-74
2022/09/07 07:44:54;;;;;;;20.88;16.77;;;18.20;99.90;;;;;;5069520;28;20414;-74
2022/09/07 07:47:20;;;;;;;21.25;17.67;;;18.30;99.90;;;;;;5071089;28;20112;-74
2022/09/07 07:49:46;;;;;;;21.52;16.52;;;18.30;99.90;;;;;;5069701;28;20120;-74
2022/09/07 07:52:11;;;;;;;29.35;20.75;;;18.40;99.90;;;;;;5071101;28;20090;-74
2022/09/07 07:54:37;;;;;;;31.23;20.90;;;18.50;99.90;;;;;;5069445;28;20045;-74
2022/09/07 07:57:04;;;;;;;29.23;21.65;;;18.50;99.90;;;;;;5069333;28;20040;-74
2022/09/07 07:59:30;;;;;;;28.80;18.70;;;18.50;99.90;;;;;;5069474;28;20064;-74
2022/09/07 08:01:55;;;;;;;20.60;18.38;;;18.60;99.90;;;;;;5069678;28;20068;-74
2022/09/07 08:04:21;;;;;;;25.48;18.40;;;18.60;99.90;;;;;;5053371;28;20102;-74
2022/09/07 08:06:47;;;;;;;21.38;19.23;;;18.60;99.90;;;;;;5070870;28;20041;-74
2022/09/07 08:09:13;;;;;;;24.38;18.63;;;18.60;99.90;;;;;;5069103;28;20040;-74
2022/09/07 08:11:39;;;;;;;22.60;19.55;;;18.60;99.90;;;;;;5052966;28;20043;-74
2022/09/07 08:14:05;;;;;;;27.65;16.92;;;18.70;99.90;;;;;;5070737;28;20394;-74
2022/09/07 08:16:32;;;;;;;21.92;17.67;;;18.70;99.90;;;;;;5069729;28;20037;-75
2022/09/07 08:18:59;;;;;;;21.80;19.40;;;18.70;99.90;;;;;;5069436;28;20041;-74
2022/09/07 08:21:25;;;;;;;25.83;18.92;;;18.70;99.90;;;;;;5069105;28;20064;-75
2022/09/07 08:23:51;;;;;;;24.88;18.63;;;18.80;99.90;;;;;;5074766;28;20099;-75
2022/09/07 08:26:16;;;;;;;23.83;18.10;;;18.80;99.90;;;;;;5073373;28;20529;-74
2022/09/07 08:28:46;;;;;;;20.90;16.40;;;18.80;99.90;;;;;;5073500;28;20394;-74
2022/09/07 08:31:14;;;;;;;21.50;18.23;;;18.90;99.90;;;;;;5072960;28;20131;-74
2022/09/07 08:33:40;;;;;;;20.08;17.35;;;19.00;99.90;;;;;;5072513;28;20075;-72
2022/09/07 08:36:10;;;;;;;21.83;18.23;;;19.00;99.90;;;;;;5072924;28;20454;-72
2022/09/07 08:38:36;;;;;;;19.92;16.45;;;19.10;99.90;;;;;;5073080;28;20033;-72
2022/09/07 08:41:25;;;;;;;20.70;17.77;;;19.20;99.90;;;;;;5074121;28;20036;-73
2022/09/07 08:44:01;;;;;;;22.48;17.75;;;19.30;99.90;;;;;;5073100;28;20052;-73
2022/09/07 08:46:57;;;;;;;18.77;15.75;;;19.50;99.90;;;;;;5072419;28;20136;-73
2022/09/07 08:49:57;;;;;;;17.83;15.75;;;19.70;99.90;;;;;;5072896;28;20055;-73
2022/09/07 08:52:33;;;;;;;22.60;16.95;;;19.90;99.90;;;;;;5074126;28;20051;-74
2022/09/07 08:55:03;;;;;;;20.70;17.48;;;20.10;99.90;;;;;;5072649;28;20472;-73
2022/09/07 08:57:31;;;;;;;17.60;14.23;;;20.20;99.90;;;;;;5072493;28;20076;-73
2022/09/07 09:00:10;;;;;;;18.33;15.25;;;20.60;99.90;;;;;;5073682;28;20095;-73
2022/09/07 09:02:36;;;;;;;18.73;15.85;;;21.00;99.90;;;;;;5072971;28;20056;-74
2022/09/07 09:05:03;;;;;;;17.60;15.70;;;21.30;99.90;;;;;;5056139;28;20093;-76
2022/09/07 09:08:11;;;;;;;16.92;15.18;;;21.50;99.90;;;;;;5072814;28;20067;-74
2022/09/07 09:11:04;;;;;;;15.63;14.00;;;21.70;99.90;;;;;;5013036;28;20041;-74
2022/09/07 09:13:37;;;;;;;16.90;15.10;;;21.70;99.90;;;;;;5072759;28;20092;-74
2022/09/07 09:16:32;;;;;;;17.30;14.68;;;21.90;99.90;;;;;;5072592;28;20048;-74
2022/09/07 09:19:19;;;;;;;17.05;14.57;;;21.90;99.90;;;;;;5072174;28;20048;-74
2022/09/07 09:21:45;;;;;;;16.70;14.50;;;22.00;99.90;;;;;;5072323;28;20047;-74
2022/09/07 09:24:18;;;;;;;17.67;14.38;;;22.10;99.90;;;;;;5070681;28;20052;-75
2022/09/07 09:26:55;;;;;;;16.45;14.52;;;22.10;99.90;;;;;;5072232;28;20080;-74
2022/09/07 09:29:22;;;;;;;14.57;13.07;;;22.10;99.90;;;;;;5071902;28;20051;-75
2022/09/07 09:31:47;;;;;;;16.17;14.55;;;22.10;99.90;;;;;;5073390;28;20498;-75
2022/09/07 09:34:17;;;;;;;14.35;12.85;;;22.10;99.90;;;;;;5070556;28;20044;-74
2022/09/07 09:36:47;;;;;;;16.25;14.60;;;22.10;99.90;;;;;;5054998;28;20040;-75
2022/09/07 09:39:26;;;;;;;18.23;13.95;;;22.20;99.90;;;;;;5071714;28;20036;-75
2022/09/07 09:41:54;;;;;;;14.18;12.68;;;22.40;99.90;;;;;;5071968;28;20221;-75
2022/09/07 09:44:21;;;;;;;13.43;12.02;;;22.60;99.90;;;;;;5072390;28;20116;-75
2022/09/07 09:46:53;;;;;;;14.20;12.82;;;22.70;99.90;;;;;;5073116;28;20083;-74
2022/09/07 09:49:28;;;;;;;14.18;12.68;;;22.90;99.90;;;;;;5071551;28;20123;-75
2022/09/07 09:51:55;;;;;;;14.25;12.77;;;22.90;99.90;;;;;;5072547;28;20125;-75
2022/09/07 09:54:32;;;;;;;14.55;11.70;;;23.00;99.90;;;;;;5071119;28;20041;-75
2022/09/07 09:56:58;;;;;;;12.13;11.07;;;23.30;99.90;;;;;;5073072;28;20491;-74
2022/09/07 09:59:27;;;;;;;13.05;9.95;;;23.50;99.90;;;;;;5071154;28;20040;-74
2022/09/07 10:01:53;;;;;;;14.20;11.82;;;23.60;99.90;;;;;;5072241;28;20041;-74
2022/09/07 10:04:33;;;;;;;12.68;10.65;;;23.70;99.90;;;;;;5071583;28;20046;-74
2022/09/07 10:07:16;;;;;;;10.45;9.27;;;23.80;99.90;;;;;;5071753;28;20040;-74
2022/09/07 10:09:51;;;;;;;11.23;10.05;;;23.80;99.90;;;;;;5072565;28;20040;-74
2022/09/07 10:12:23;;;;;;;;;;;23.90;99.90;;;;;;5072015;28;20037;-74
2022/09/07 10:14:50;;;;;;;9.45;8.13;;;23.90;99.90;;;;;;5071132;28;19920;-75
2022/09/07 10:17:32;;;;;;;9.07;8.20;;;23.70;99.90;;;;;;5054502;28;20048;-75
2022/09/07 10:20:00;;;;;;;11.40;9.30;;;23.50;99.90;;;;;;5070552;28;20119;-75
2022/09/07 10:22:34;;;;;;;10.25;9.07;;;23.40;99.90;;;;;;5071133;28;20036;-75
2022/09/07 10:25:02;;;;;;;11.32;9.48;;;23.40;99.90;;;;;;5054458;28;20503;-76
2022/09/07 10:27:30;;;;;;;8.82;7.85;;;23.40;99.90;;;;;;5071137;28;20085;-75
2022/09/07 10:29:56;;;;;;;9.95;9.05;;;23.40;99.90;;;;;;5070989;28;20070;-74
2022/09/07 10:32:48;;;;;;;8.07;7.38;;;23.50;99.90;;;;;;5070908;28;20119;-74
2022/09/07 10:35:30;;;;;;;9.38;8.50;;;23.80;99.90;;;;;;5070739;28;20171;-74
2022/09/07 10:38:13;;;;;;;7.57;6.88;;;24.60;99.90;;;;;;5071092;28;20477;-75
2022/09/07 10:41:06;;;;;;;7.97;7.18;;;25.00;99.90;;;;;;5068782;28;20044;-75
2022/09/07 10:43:37;;;;;;;8.07;7.28;;;25.10;99.90;;;;;;5060898;28;20163;-75
2022/09/07 10:46:18;;;;;;;8.93;6.53;;;25.10;99.90;;;;;;5059754;28;20041;-75
2022/09/07 10:49:09;;;;;;;6.45;5.85;;;25.20;99.90;;;;;;5059915;28;20041;-75
2022/09/07 10:51:55;;;;;;;6.63;5.85;;;25.00;99.90;;;;;;5064182;28;20036;-75
2022/09/07 10:54:33;;;;;;;12.65;11.27;;;24.90;99.90;;;;;;5061629;28;20039;-75
2022/09/07 10:57:04;;;;;;;7.30;6.63;;;25.00;99.90;;;;;;5052923;28;20098;-76
2022/09/07 10:59:34;;;;;;;6.60;5.85;;;24.80;99.90;;;;;;5051986;28;20548;-75
2022/09/07 11:02:11;;;;;;;12.80;11.50;;;24.60;99.90;;;;;;5067162;28;20411;-74
2022/09/07 11:05:02;;;;;;;7.93;5.30;;;24.50;99.90;;;;;;5063717;28;20600;-75
2022/09/07 11:07:43;;;;;;;5.90;5.40;;;24.30;99.90;;;;;;5058721;28;20037;-75
2022/09/07 11:10:24;;;;;;;4.57;4.18;;;24.30;99.90;;;;;;5050060;28;20128;-76
2022/09/07 11:12:52;;;;;;;5.10;4.60;;;24.40;99.90;;;;;;5050956;28;20372;-76
2022/09/07 11:15:32;;;;;;;4.47;4.07;;;24.30;99.90;;;;;;5060872;28;20048;-75
2022/09/07 11:18:04;;;;;;;4.20;3.80;;;24.30;99.90;;;;;;5070188;28;20221;-76
2022/09/07 11:20:43;;;;;;;4.95;3.72;;;24.40;99.90;;;;;;5060240;28;20047;-76
2022/09/07 11:23:14;;;;;;;5.50;3.90;;;24.70;99.90;;;;;;5060589;28;20045;-75
2022/09/07 11:26:00;;;;;;;4.03;3.53;;;24.70;99.90;;;;;;5069516;28;20375;-75
2022/09/07 11:28:33;;;;;;;6.85;3.25;;;25.00;99.90;;;;;;5071555;28;20040;-75
2022/09/07 11:31:03;;;;;;;3.38;2.45;;;25.50;99.90;;;;;;5068210;28;20483;-75
2022/09/07 11:33:56;;;;;;;2.85;2.55;;;26.20;99.90;;;;;;5063205;28;20044;-75
2022/09/07 11:36:29;;;;;;;5.72;2.72;;;26.80;99.90;;;;;;5086616;23;20431;-76
2022/09/07 11:39:08;;;;;;;3.63;2.80;;;27.00;99.90;;;;;;5076182;28;20035;-76
2022/09/07 11:41:44;;;;;;;3.42;2.35;;;26.70;99.90;;;;;;5090418;28;20051;-76
2022/09/07 11:44:23;;;;;;;2.95;2.03;;;26.40;99.90;;;;;;5087338;28;20074;-76
2022/09/07 11:47:23;;;;;;;3.20;2.10;;;26.60;99.90;;;;;;5069790;28;20066;-76
2022/09/07 11:49:53;;;;;;;3.70;2.47;;;26.80;99.90;;;;;;5053281;28;20059;-77
2022/09/07 11:52:39;;;;;;;1.40;1.30;;;27.00;99.90;;;;;;5065571;28;20090;-77
2022/09/07 11:55:13;;;;;;;3.40;2.20;;;27.30;99.90;;;;;;5073701;28;20040;-78
2022/09/07 11:58:02;;;;;;;4.40;2.50;;;27.10;99.90;;;;;;5076396;28;20393;-78
2022/09/07 12:00:51;;;;;;;3.75;2.85;;;26.60;99.90;;;;;;5078087;28;20050;-78
2022/09/07 12:04:08;;;;;;;3.22;2.17;;;25.80;99.90;;;;;;5077035;28;20051;-77
2022/09/07 12:06:48;;;;;;;2.65;1.77;;;25.40;99.90;;;;;;5036486;28;20052;-78
2022/09/07 12:09:14;;;;;;;3.13;2.50;;;25.90;99.90;;;;;;5056927;28;20153;-78
2022/09/07 12:12:12;;;;;;;2.20;2.00;;;26.10;99.90;;;;;;5074658;28;20071;-78
2022/09/07 12:15:02;;;;;;;3.60;2.55;;;25.90;99.90;;;;;;5064860;28;20051;-78
2022/09/07 12:17:54;;;;;;;3.15;1.48;;;25.90;99.90;;;;;;5077566;28;20455;-78
2022/09/07 12:20:24;;;;;;;3.80;1.30;;;26.50;99.90;;;;;;5077481;28;20054;-79
2022/09/07 12:23:19;;;;;;;3.10;1.55;;;27.30;99.90;;;;;;5078462;28;20514;-79
2022/09/07 12:25:50;;;;;;;2.30;1.10;;;27.60;99.90;;;;;;5077540;28;20047;-78
2022/09/07 12:28:22;;;;;;;1.90;1.20;;;27.70;99.90;;;;;;5077389;28;20036;-78
2022/09/07 12:31:04;;;;;;;1.58;0.85;;;28.10;99.90;;;;;;5077731;28;20099;-78
2022/09/07 12:33:38;;;;;;;2.35;1.20;;;28.80;99.90;;;;;;5076647;28;20040;-78
2022/09/07 12:36:22;;;;;;;;;;;29.50;99.90;;;;;;5077968;28;20040;-78
2022/09/07 12:39:19;;;;;;;3.53;1.27;;;29.90;93.10;;;;;;5079102;28;20030;-78
2022/09/07 12:41:48;;;;;;;2.58;1.00;;;29.50;97.40;;;;;;5077253;28;20044;-78
2022/09/07 12:44:17;;;;;;;1.90;1.20;;;28.60;99.90;;;;;;5093614;28;20076;-77
2022/09/07 12:46:45;;;;;;;1.58;0.82;;;28.30;99.90;;;;;;5090004;28;20595;-78
2022/09/07 12:49:43;;;;;;;3.63;1.17;;;28.00;99.60;;;;;;5081202;28;20126;-78
2022/09/07 12:52:33;;;;;;;2.85;1.30;;;27.80;97.20;;;;;;5073070;28;20126;-78
2022/09/07 12:55:27;;;;;;;1.13;0.75;;;27.80;99.90;;;;;;5064813;28;20052;-78
2022/09/07 12:57:56;;;;;;;1.70;0.95;;;28.20;96.80;;;;;;5092176;28;20036;-78
2022/09/07 13:00:35;;;;;;;2.42;1.05;;;28.60;99.90;;;;;;5067095;28;20043;-79